createdAt,value
2019-05-26T00:00:45.092Z,99.90
2019-05-26T00:03:13.298Z,99.90
2019-05-26T00:05:41.504Z,99.90
2019-05-26T00:08:09.723Z,99.90
2019-05-26T00:10:37.928Z,99.90
2019-05-26T00:13:06.124Z,99.90
2019-05-26T00:15:34.332Z,99.90
2019-05-26T00:18:02.541Z,99.90
2019-05-26T00:20:30.748Z,99.90
2019-05-26T00:22:58.953Z,99.90
2019-05-26T00:25:27.154Z,99.90
2019-05-26T00:27:55.436Z,99.90
2019-05-26T00:30:23.640Z,99.90
2019-05-26T00:32:51.841Z,99.90
2019-05-26T00:35:20.061Z,99.90
2019-05-26T00:37:50.360Z,99.90
2019-05-26T00:40:19.415Z,99.90
2019-05-26T00:42:47.673Z,99.90
2019-05-26T00:45:16.451Z,99.90
2019-05-26T00:47:44.649Z,99.90
2019-05-26T00:50:12.861Z,99.90
2019-05-26T00:52:41.064Z,99.90
2019-05-26T00:55:09.371Z,99.90
2019-05-26T00:57:37.561Z,99.90
2019-05-26T01:00:07.511Z,99.90
2019-05-26T01:02:35.773Z,99.90
2019-05-26T01:05:05.528Z,99.90
2019-05-26T01:07:33.732Z,99.90
2019-05-26T01:10:01.940Z,99.90
2019-05-26T01:12:30.154Z,99.90
2019-05-26T01:14:58.356Z,99.90
2019-05-26T01:17:26.563Z,99.90
2019-05-26T01:19:54.772Z,99.90
2019-05-26T01:22:22.972Z,99.90
2019-05-26T01:24:51.229Z,99.90
2019-05-26T01:27:19.480Z,99.90
2019-05-26T01:29:47.691Z,99.90
2019-05-26T01:32:15.896Z,99.90
2019-05-26T01:34:44.098Z,99.90
2019-05-26T01:37:12.313Z,99.90
2019-05-26T01:39:40.509Z,99.90
2019-05-26T01:42:08.799Z,99.90
2019-05-26T01:44:37.045Z,99.90
2019-05-26T01:47:05.248Z,99.90
2019-05-26T01:49:33.448Z,99.90
2019-05-26T01:52:01.665Z,99.90
2019-05-26T01:54:29.856Z,99.90
2019-05-26T01:56:58.068Z,99.90
2019-05-26T01:59:26.261Z,99.90
2019-05-26T02:01:58.352Z,99.90
2019-05-26T02:04:24.393Z,99.90
2019-05-26T02:06:52.597Z,99.90
2019-05-26T02:09:20.796Z,99.90
2019-05-26T02:11:49.012Z,99.90
2019-05-26T02:14:17.212Z,99.90
2019-05-26T02:16:45.416Z,99.90
2019-05-26T02:19:13.621Z,99.90
2019-05-26T02:21:41.824Z,99.90
2019-05-26T02:24:10.020Z,99.90
2019-05-26T02:26:38.226Z,99.90
2019-05-26T02:29:06.421Z,99.90
2019-05-26T02:31:34.623Z,99.90
2019-05-26T02:34:02.819Z,99.90
2019-05-26T02:36:31.021Z,99.90
2019-05-26T02:39:02.497Z,99.90
2019-05-26T02:41:29.213Z,99.90
2019-05-26T02:43:57.422Z,99.90
2019-05-26T02:46:25.624Z,99.90
2019-05-26T02:48:53.822Z,99.90
2019-05-26T02:51:22.024Z,99.90
2019-05-26T02:53:50.222Z,99.90
2019-05-26T02:56:18.429Z,99.90
2019-05-26T02:58:46.632Z,99.90
2019-05-26T03:01:14.833Z,99.90
2019-05-26T03:03:43.033Z,99.90
2019-05-26T03:06:11.229Z,99.90
2019-05-26T03:08:39.441Z,99.90
2019-05-26T03:11:07.636Z,99.90
2019-05-26T03:13:35.848Z,99.90
2019-05-26T03:16:04.044Z,99.90
2019-05-26T03:18:32.309Z,99.90
2019-05-26T03:21:01.744Z,99.90
2019-05-26T03:23:31.311Z,99.90
2019-05-26T03:25:59.672Z,99.90
2019-05-26T03:28:27.882Z,99.90
2019-05-26T03:30:56.088Z,99.90
2019-05-26T03:33:24.286Z,99.90
2019-05-26T03:35:52.481Z,99.90
2019-05-26T03:38:20.681Z,99.90
2019-05-26T03:40:48.885Z,99.90
2019-05-26T03:43:17.092Z,99.90
2019-05-26T03:46:07.956Z,99.90
2019-05-26T03:48:36.153Z,99.90
2019-05-26T03:51:04.373Z,99.90
2019-05-26T03:53:32.556Z,99.90
2019-05-26T03:56:00.752Z,99.90
2019-05-26T03:58:28.969Z,99.90
2019-05-26T04:00:57.161Z,99.90
2019-05-26T04:03:25.363Z,99.90
2019-05-26T04:05:53.560Z,99.90
2019-05-26T04:08:21.838Z,99.90
2019-05-26T04:10:50.037Z,99.90
2019-05-26T04:13:18.249Z,99.90
2019-05-26T04:15:46.445Z,99.90
2019-05-26T04:18:14.683Z,99.90
2019-05-26T04:20:45.754Z,99.90
2019-05-26T04:23:12.853Z,99.90
2019-05-26T04:25:41.048Z,99.90
2019-05-26T04:28:09.247Z,99.90
2019-05-26T04:30:37.450Z,99.90
2019-05-26T04:33:05.654Z,99.90
2019-05-26T04:35:33.853Z,99.90
2019-05-26T04:38:02.060Z,99.90
2019-05-26T04:40:30.265Z,99.90
2019-05-26T04:42:58.464Z,99.90
2019-05-26T04:45:26.661Z,99.90
2019-05-26T04:47:54.864Z,99.90
2019-05-26T04:50:23.067Z,99.90
2019-05-26T04:53:05.211Z,99.90
2019-05-26T04:55:21.184Z,99.90
2019-05-26T04:57:49.385Z,99.90
2019-05-26T05:00:17.580Z,99.90
2019-05-26T05:02:45.776Z,99.90
2019-05-26T05:05:13.982Z,99.90
2019-05-26T05:07:42.181Z,99.90
2019-05-26T05:10:10.388Z,99.90
2019-05-26T05:12:39.146Z,99.90
2019-05-26T05:15:07.460Z,99.90
2019-05-26T05:17:35.658Z,99.90
2019-05-26T05:20:06.408Z,99.90
2019-05-26T05:22:34.600Z,99.90
2019-05-26T05:25:03.068Z,99.90
2019-05-26T05:27:31.269Z,99.90
2019-05-26T05:29:59.472Z,99.90
2019-05-26T05:32:27.676Z,99.90
2019-05-26T05:34:55.880Z,99.90
2019-05-26T05:37:25.327Z,99.90
2019-05-26T05:39:53.563Z,99.90
2019-05-26T05:42:21.755Z,99.90
2019-05-26T05:44:49.956Z,99.90
2019-05-26T05:47:18.173Z,99.90
2019-05-26T05:49:46.380Z,99.90
2019-05-26T05:52:14.576Z,99.90
2019-05-26T05:54:42.782Z,99.90
2019-05-26T05:57:10.980Z,99.90
2019-05-26T05:59:39.184Z,99.90
2019-05-26T06:02:07.387Z,99.90
2019-05-26T06:04:35.588Z,99.90
2019-05-26T06:07:03.787Z,99.90
2019-05-26T06:09:31.996Z,99.90
2019-05-26T06:12:00.937Z,99.90
2019-05-26T06:14:29.183Z,99.90
2019-05-26T06:16:57.373Z,99.90
2019-05-26T06:19:25.576Z,99.90
2019-05-26T06:21:53.780Z,99.90
2019-05-26T06:24:21.989Z,99.90
2019-05-26T06:26:50.192Z,99.90
2019-05-26T06:29:18.400Z,99.90
2019-05-26T06:31:46.719Z,99.90
2019-05-26T06:34:14.883Z,99.90
2019-05-26T06:36:43.081Z,99.90
2019-05-26T06:39:11.280Z,99.90
2019-05-26T06:41:39.554Z,99.90
2019-05-26T06:44:07.756Z,99.90
2019-05-26T06:46:35.958Z,99.90
2019-05-26T06:49:04.241Z,99.90
2019-05-26T06:51:32.436Z,99.90
2019-05-26T06:54:00.643Z,99.90
2019-05-26T06:56:28.848Z,99.90
2019-05-26T06:58:57.048Z,99.90
2019-05-26T07:01:25.252Z,99.90
2019-05-26T07:03:53.448Z,99.90
2019-05-26T07:06:21.652Z,99.90
2019-05-26T07:08:50.028Z,99.90
2019-05-26T07:11:18.228Z,99.90
2019-05-26T07:13:46.429Z,99.90
2019-05-26T07:16:14.633Z,99.90
2019-05-26T07:18:42.833Z,99.90
2019-05-26T07:21:11.032Z,99.90
2019-05-26T07:23:39.228Z,99.10
2019-05-26T07:26:07.431Z,99.30
2019-05-26T07:28:35.636Z,99.40
2019-05-26T07:31:04.013Z,98.90
2019-05-26T07:33:32.208Z,98.70
2019-05-26T07:36:00.412Z,99.00
2019-05-26T07:38:28.613Z,99.00
2019-05-26T07:40:56.820Z,99.20
2019-05-26T07:43:27.973Z,99.00
2019-05-26T07:45:54.941Z,98.30
2019-05-26T07:48:23.144Z,98.40
2019-05-26T07:50:51.353Z,98.80
2019-05-26T07:53:19.552Z,97.60
2019-05-26T07:55:47.756Z,98.00
2019-05-26T07:58:15.966Z,97.20
2019-05-26T08:00:44.161Z,97.30
2019-05-26T08:03:12.367Z,98.00
2019-05-26T08:05:40.565Z,97.30
2019-05-26T08:08:13.178Z,96.70
2019-05-26T08:10:38.688Z,96.80
2019-05-26T08:13:06.884Z,97.20
2019-05-26T08:15:35.088Z,96.50
2019-05-26T08:18:03.295Z,96.60
2019-05-26T08:20:31.503Z,97.10
2019-05-26T08:22:59.709Z,96.00
2019-05-26T08:25:27.915Z,95.50
2019-05-26T08:27:56.124Z,95.40
2019-05-26T08:30:24.396Z,95.70
2019-05-26T08:32:52.592Z,95.80
2019-05-26T08:35:20.792Z,95.20
2019-05-26T08:37:48.988Z,94.60
2019-05-26T08:40:20.226Z,94.90
2019-05-26T08:42:49.366Z,94.80
2019-05-26T08:45:21.398Z,93.90
2019-05-26T08:47:47.920Z,94.50
2019-05-26T08:50:16.123Z,94.40
2019-05-26T08:52:44.324Z,93.70
2019-05-26T08:55:12.522Z,92.80
2019-05-26T08:57:40.728Z,92.60
2019-05-26T09:00:09.093Z,91.50
2019-05-26T09:02:37.308Z,91.30
2019-05-26T09:05:08.624Z,91.30
2019-05-26T09:07:36.828Z,91.20
2019-05-26T09:10:07.706Z,90.40
2019-05-26T09:12:35.917Z,90.00
2019-05-26T09:15:05.357Z,86.70
2019-05-26T09:17:33.569Z,86.60
2019-05-26T09:20:01.763Z,88.90
2019-05-26T09:22:29.981Z,88.00
2019-05-26T09:24:58.172Z,86.50
2019-05-26T09:27:26.372Z,85.50
2019-05-26T09:29:54.600Z,84.50
2019-05-26T09:32:22.800Z,81.60
2019-05-26T09:34:50.997Z,83.00
2019-05-26T09:37:19.208Z,83.50
2019-05-26T09:39:47.413Z,84.90
2019-05-26T09:42:15.608Z,80.20
2019-05-26T09:44:43.804Z,81.60
2019-05-26T09:47:12.010Z,84.40
2019-05-26T09:49:40.205Z,84.70
2019-05-26T09:52:08.409Z,82.20
2019-05-26T09:54:36.604Z,79.00
2019-05-26T09:57:04.888Z,70.70
2019-05-26T09:59:33.093Z,68.30
2019-05-26T10:02:01.295Z,69.70
2019-05-26T10:04:29.492Z,70.80
2019-05-26T10:06:57.696Z,64.10
2019-05-26T10:09:25.899Z,66.30
2019-05-26T10:11:54.098Z,65.70
2019-05-26T10:14:22.297Z,64.30
2019-05-26T10:16:50.492Z,61.30
2019-05-26T10:19:18.704Z,60.80
2019-05-26T10:21:46.894Z,59.90
2019-05-26T10:24:15.092Z,62.80
2019-05-26T10:26:43.288Z,63.10
2019-05-26T10:29:11.503Z,66.00
2019-05-26T10:31:39.692Z,65.90
2019-05-26T10:34:07.893Z,65.20
2019-05-26T10:36:36.093Z,65.40
2019-05-26T10:39:06.998Z,66.60
2019-05-26T10:41:35.191Z,62.20
2019-05-26T10:44:03.732Z,62.10
2019-05-26T10:46:31.931Z,62.00
2019-05-26T10:49:00.139Z,63.00
2019-05-26T10:51:28.330Z,61.80
2019-05-26T10:53:56.532Z,64.20
2019-05-26T10:56:24.728Z,65.00
2019-05-26T10:58:52.938Z,63.30
2019-05-26T11:01:21.132Z,65.70
2019-05-26T11:03:49.336Z,64.10
2019-05-26T11:06:17.533Z,63.30
2019-05-26T11:08:45.736Z,64.70
2019-05-26T11:11:13.936Z,65.80
2019-05-26T11:13:42.146Z,66.00
2019-05-26T11:16:10.340Z,65.00
2019-05-26T11:18:38.552Z,63.00
2019-05-26T11:21:06.748Z,62.50
2019-05-26T11:23:34.948Z,60.80
2019-05-26T11:26:03.213Z,60.10
2019-05-26T11:28:31.428Z,59.00
2019-05-26T11:30:59.624Z,58.60
2019-05-26T11:33:27.848Z,58.10
2019-05-26T11:35:56.046Z,56.30
2019-05-26T11:38:24.317Z,56.10
2019-05-26T11:40:52.548Z,57.60
2019-05-26T11:43:20.744Z,58.90
2019-05-26T11:45:48.934Z,58.80
2019-05-26T11:48:17.128Z,57.80
2019-05-26T11:50:45.332Z,56.60
2019-05-26T11:53:13.533Z,58.20
2019-05-26T11:55:42.477Z,55.80
2019-05-26T11:58:10.681Z,57.50
2019-05-26T12:00:38.876Z,54.60
2019-05-26T12:03:07.072Z,54.00
2019-05-26T12:05:35.280Z,53.60
2019-05-26T12:08:03.486Z,51.80
2019-05-26T12:10:31.679Z,50.00
2019-05-26T12:12:59.883Z,49.80
2019-05-26T12:15:28.092Z,51.60
2019-05-26T12:17:56.294Z,51.70
2019-05-26T12:20:24.492Z,50.70
2019-05-26T12:22:52.702Z,50.30
2019-05-26T12:25:20.908Z,50.70
2019-05-26T12:27:49.105Z,51.40
2019-05-26T12:30:17.311Z,51.60
2019-05-26T12:32:45.602Z,52.70
2019-05-26T12:35:13.824Z,53.50
2019-05-26T12:37:42.025Z,54.40
2019-05-26T12:40:12.104Z,53.60
2019-05-26T12:42:40.302Z,55.60
2019-05-26T12:45:08.578Z,53.00
2019-05-26T12:47:36.777Z,53.10
2019-05-26T12:50:08.058Z,54.60
2019-05-26T12:52:36.264Z,56.00
2019-05-26T12:55:08.738Z,56.30
2019-05-26T12:57:35.146Z,56.90
2019-05-26T13:00:06.251Z,56.90
2019-05-26T13:02:34.449Z,54.50
2019-05-26T13:05:02.832Z,52.60
2019-05-26T13:07:31.032Z,53.50
2019-05-26T13:09:59.236Z,54.00
2019-05-26T13:12:27.432Z,53.80
2019-05-26T13:15:05.505Z,52.90
2019-05-26T13:17:25.553Z,53.90
2019-05-26T13:19:53.760Z,52.00
2019-05-26T13:22:21.960Z,53.10
2019-05-26T13:24:50.169Z,53.80
2019-05-26T13:27:18.737Z,54.40
2019-05-26T13:29:46.945Z,54.40
2019-05-26T13:32:15.152Z,54.00
2019-05-26T13:34:43.357Z,53.30
2019-05-26T13:37:11.560Z,54.60
2019-05-26T13:39:39.767Z,53.30
2019-05-26T13:42:07.964Z,53.10
2019-05-26T13:44:36.168Z,53.40
2019-05-26T13:47:04.366Z,52.70
2019-05-26T13:49:32.575Z,53.10
2019-05-26T13:52:00.780Z,54.10
2019-05-26T13:54:29.137Z,54.60
2019-05-26T13:56:57.328Z,53.80
2019-05-26T13:59:25.534Z,54.70
2019-05-26T14:01:53.739Z,54.00
2019-05-26T14:04:21.942Z,55.10
2019-05-26T14:06:50.234Z,54.80
2019-05-26T14:09:18.423Z,56.00
2019-05-26T14:11:46.640Z,56.10
2019-05-26T14:14:14.839Z,54.60
2019-05-26T14:16:43.040Z,55.90
2019-05-26T14:19:11.242Z,56.60
2019-05-26T14:21:39.441Z,53.40
2019-05-26T14:24:07.640Z,53.80
2019-05-26T14:26:35.850Z,54.50
2019-05-26T14:29:04.058Z,54.60
2019-05-26T14:31:32.263Z,54.30
2019-05-26T14:34:00.460Z,52.20
2019-05-26T14:36:28.668Z,52.60
2019-05-26T14:38:56.866Z,53.90
2019-05-26T14:41:25.069Z,55.10
2019-05-26T14:43:53.268Z,52.20
2019-05-26T14:46:21.480Z,52.90
2019-05-26T14:48:49.681Z,53.40
2019-05-26T14:51:17.876Z,55.10
2019-05-26T14:53:46.077Z,56.50
2019-05-26T14:56:14.290Z,56.00
2019-05-26T14:58:42.485Z,53.20
2019-05-26T15:01:10.685Z,53.70
2019-05-26T15:03:38.887Z,52.70
2019-05-26T15:06:07.079Z,53.90
2019-05-26T15:08:35.277Z,54.10
2019-05-26T15:11:03.497Z,56.00
2019-05-26T15:13:31.693Z,57.30
2019-05-26T15:16:09.417Z,57.20
2019-05-26T15:18:29.840Z,56.00
2019-05-26T15:20:58.048Z,55.60
2019-05-26T15:23:26.253Z,54.70
2019-05-26T15:25:54.463Z,54.70
2019-05-26T15:28:22.672Z,56.20
2019-05-26T15:30:50.871Z,56.30
2019-05-26T15:33:19.082Z,56.20
2019-05-26T15:35:47.276Z,54.70
2019-05-26T15:38:15.497Z,55.40
2019-05-26T15:40:43.692Z,55.70
2019-05-26T15:43:11.895Z,57.40
2019-05-26T15:45:40.100Z,57.20
2019-05-26T15:48:08.305Z,56.30
2019-05-26T15:50:36.497Z,56.90
2019-05-26T15:53:04.700Z,57.10
2019-05-26T15:55:32.897Z,56.50
2019-05-26T15:58:01.104Z,55.90
2019-05-26T16:00:29.300Z,55.70
2019-05-26T16:02:57.503Z,56.80
2019-05-26T16:05:25.704Z,56.70
2019-05-26T16:07:53.915Z,56.40
2019-05-26T16:10:22.115Z,55.30
2019-05-26T16:12:50.313Z,56.00
2019-05-26T16:15:18.517Z,56.60
2019-05-26T16:17:46.708Z,55.30
2019-05-26T16:20:14.910Z,55.80
2019-05-26T16:22:43.109Z,56.30
2019-05-26T16:25:11.318Z,55.80
2019-05-26T16:27:39.515Z,56.20
2019-05-26T16:30:08.484Z,56.70
2019-05-26T16:32:36.689Z,55.80
2019-05-26T16:35:05.320Z,56.20
2019-05-26T16:37:33.524Z,56.90
2019-05-26T16:40:01.820Z,55.30
2019-05-26T16:42:30.005Z,56.00
2019-05-26T16:44:58.216Z,55.20
2019-05-26T16:47:26.497Z,56.60
2019-05-26T16:49:54.692Z,55.20
2019-05-26T16:52:22.888Z,55.20
2019-05-26T16:54:51.110Z,56.00
2019-05-26T16:57:19.368Z,55.00
2019-05-26T16:59:47.580Z,54.80
2019-05-26T17:02:15.776Z,54.80
2019-05-26T17:04:43.989Z,55.60
2019-05-26T17:07:12.181Z,55.80
2019-05-26T17:09:40.384Z,56.10
2019-05-26T17:12:08.581Z,56.90
2019-05-26T17:14:36.780Z,56.90
2019-05-26T17:17:14.025Z,56.90
2019-05-26T17:19:34.904Z,57.70
2019-05-26T17:22:03.102Z,57.40
2019-05-26T17:24:31.301Z,57.80
2019-05-26T17:26:59.496Z,58.80
2019-05-26T17:29:27.701Z,58.20
2019-05-26T17:31:55.909Z,58.10
2019-05-26T17:34:24.108Z,58.70
2019-05-26T17:36:52.309Z,59.20
2019-05-26T17:39:20.516Z,59.60
2019-05-26T17:41:48.717Z,60.30
2019-05-26T17:44:16.916Z,61.20
2019-05-26T17:46:45.115Z,60.40
2019-05-26T17:49:13.320Z,59.40
2019-05-26T17:51:41.539Z,61.00
2019-05-26T17:54:09.799Z,61.90
2019-05-26T17:56:37.993Z,62.90
2019-05-26T17:59:06.200Z,60.80
2019-05-26T18:01:34.400Z,63.10
2019-05-26T18:04:02.596Z,63.20
2019-05-26T18:06:30.796Z,66.50
2019-05-26T18:08:58.997Z,65.90
2019-05-26T18:11:27.249Z,65.50
2019-05-26T18:13:55.494Z,67.50
2019-05-26T18:16:23.696Z,68.40
2019-05-26T18:18:51.904Z,67.60
2019-05-26T18:21:20.123Z,67.00
2019-05-26T18:23:48.320Z,67.00
2019-05-26T18:26:16.516Z,66.50
2019-05-26T18:28:44.733Z,67.80
2019-05-26T18:31:12.924Z,68.50
2019-05-26T18:33:41.129Z,70.00
2019-05-26T18:36:09.324Z,71.00
2019-05-26T18:38:37.528Z,72.00
2019-05-26T18:41:05.728Z,72.00
2019-05-26T18:43:33.940Z,72.70
2019-05-26T18:46:02.142Z,73.20
2019-05-26T18:48:30.327Z,75.20
2019-05-26T18:50:58.532Z,75.40
2019-05-26T18:53:29.617Z,75.30
2019-05-26T18:55:56.652Z,74.90
2019-05-26T18:58:24.852Z,74.70
2019-05-26T19:00:53.057Z,74.70
2019-05-26T19:03:21.259Z,75.40
2019-05-26T19:05:49.464Z,76.90
2019-05-26T19:08:17.669Z,77.40
2019-05-26T19:10:45.868Z,79.10
2019-05-26T19:13:14.138Z,80.10
2019-05-26T19:15:42.356Z,79.50
2019-05-26T19:18:19.947Z,79.40
2019-05-26T19:20:40.492Z,80.10
2019-05-26T19:23:08.700Z,80.80
2019-05-26T19:25:36.900Z,81.30
2019-05-26T19:28:05.095Z,81.90
2019-05-26T19:30:33.296Z,82.70
2019-05-26T19:33:01.492Z,83.40
2019-05-26T19:35:29.692Z,83.90
2019-05-26T19:37:57.900Z,84.50
2019-05-26T19:40:26.105Z,84.70
2019-05-26T19:42:54.296Z,85.20
2019-05-26T19:45:22.495Z,85.30
2019-05-26T19:47:50.696Z,86.00
2019-05-26T19:50:18.900Z,86.50
2019-05-26T19:52:49.683Z,87.30
2019-05-26T19:55:17.085Z,88.70
2019-05-26T19:57:45.284Z,89.60
2019-05-26T20:00:14.692Z,90.50
2019-05-26T20:02:42.894Z,90.70
2019-05-26T20:05:11.161Z,91.00
2019-05-26T20:07:39.376Z,91.00
2019-05-26T20:10:07.582Z,90.70
2019-05-26T20:12:35.784Z,90.60
2019-05-26T20:15:04.348Z,90.80
2019-05-26T20:17:32.576Z,91.10
2019-05-26T20:20:00.773Z,91.40
2019-05-26T20:22:28.977Z,91.70
2019-05-26T20:24:57.462Z,92.00
2019-05-26T20:27:25.668Z,92.00
2019-05-26T20:29:53.876Z,92.40
2019-05-26T20:32:22.080Z,92.80
2019-05-26T20:34:50.276Z,92.50
2019-05-26T20:37:18.486Z,92.70
2019-05-26T20:39:46.680Z,92.70
2019-05-26T20:42:14.890Z,93.20
2019-05-26T20:44:43.088Z,93.60
2019-05-26T20:47:11.300Z,94.20
2019-05-26T20:49:45.302Z,93.90
2019-05-26T20:52:09.492Z,94.20
2019-05-26T20:54:37.704Z,94.30
2019-05-26T20:57:05.909Z,94.40
2019-05-26T20:59:34.109Z,94.50
2019-05-26T21:02:02.311Z,94.70
2019-05-26T21:04:30.508Z,94.90
2019-05-26T21:06:58.724Z,95.10
2019-05-26T21:09:26.941Z,95.80
2019-05-26T21:11:55.141Z,96.10
2019-05-26T21:14:23.348Z,96.20
2019-05-26T21:16:51.555Z,96.20
2019-05-26T21:19:19.756Z,96.20
2019-05-26T21:21:47.961Z,96.30
2019-05-26T21:24:16.165Z,96.50
2019-05-26T21:26:44.376Z,96.70
2019-05-26T21:29:12.761Z,96.90
2019-05-26T21:31:40.968Z,97.00
2019-05-26T21:34:09.168Z,97.10
2019-05-26T21:36:37.552Z,97.10
2019-05-26T21:39:07.485Z,97.10
2019-05-26T21:41:35.695Z,97.00
2019-05-26T21:44:03.884Z,96.60
2019-05-26T21:46:32.081Z,96.80
2019-05-26T21:49:00.288Z,96.90
2019-05-26T21:51:28.479Z,97.10
2019-05-26T21:53:56.686Z,97.10
2019-05-26T21:56:24.888Z,97.50
2019-05-26T21:58:53.165Z,97.40
2019-05-26T22:01:21.376Z,97.30
2019-05-26T22:03:49.582Z,97.40
2019-05-26T22:06:20.059Z,97.50
2019-05-26T22:08:47.712Z,97.80
2019-05-26T22:11:15.906Z,97.90
2019-05-26T22:13:44.112Z,97.80
2019-05-26T22:16:12.310Z,97.80
2019-05-26T22:18:40.508Z,97.90
2019-05-26T22:21:08.705Z,97.90
2019-05-26T22:23:36.911Z,97.70
2019-05-26T22:26:05.109Z,97.70
2019-05-26T22:28:33.312Z,97.80
2019-05-26T22:31:01.513Z,97.70
2019-05-26T22:33:29.720Z,97.70
2019-05-26T22:35:57.916Z,98.00
2019-05-26T22:38:26.132Z,98.20
2019-05-26T22:40:54.324Z,98.40
2019-05-26T22:43:22.542Z,98.60
2019-05-26T22:45:50.741Z,98.60
2019-05-26T22:48:18.944Z,98.80
2019-05-26T22:50:47.144Z,98.90
2019-05-26T22:53:15.358Z,98.90
2019-05-26T22:55:43.552Z,98.90
2019-05-26T22:58:11.760Z,99.00
2019-05-26T23:00:39.968Z,99.00
2019-05-26T23:03:08.169Z,99.00
2019-05-26T23:05:36.360Z,99.10
2019-05-26T23:08:04.575Z,99.20
2019-05-26T23:10:32.765Z,99.20
2019-05-26T23:13:00.968Z,99.30
2019-05-26T23:15:29.165Z,99.30
2019-05-26T23:17:57.552Z,99.20
2019-05-26T23:20:25.752Z,99.40
2019-05-26T23:22:53.956Z,99.70
2019-05-26T23:25:22.156Z,99.90
2019-05-26T23:27:50.420Z,99.80
2019-05-26T23:30:18.616Z,99.90
2019-05-26T23:32:46.816Z,99.60
2019-05-26T23:35:15.025Z,99.60
2019-05-26T23:37:43.220Z,99.70
2019-05-26T23:40:11.425Z,99.90
2019-05-26T23:42:39.624Z,99.90
2019-05-26T23:45:07.846Z,99.90
2019-05-26T23:47:36.023Z,99.90
2019-05-26T23:50:05.565Z,99.90
2019-05-26T23:52:33.769Z,99.90
2019-05-26T23:55:01.964Z,99.90
2019-05-26T23:57:30.160Z,99.90
2019-05-26T23:59:58.362Z,99.90
